Time;durP1;ratioP1;P1;durP2;ratioP2;P2;SDS_P1;SDS_P2;PMS_P1;PMS_P2;Temp;Humidity;BMP_temperature;BMP_pressure;BME280_temperature;BME280_humidity;BME280_pressure;Samples;Min_cycle;Max_cycle;Signal;HPM_P1;HPM_P2
2022/09/07 03:56:29;;;;;;;12.37;11.07;;;;;;;19.35;78.29;100630.37;5606276;31;78900;-59
2022/09/07 03:59:31;;;;;;;12.05;10.75;;;;;;;19.35;78.29;100630.37;5583752;31;34161;-58
2022/09/07 04:02:34;;;;;;;13.65;11.45;;;;;;;18.91;79.39;100631.84;5583814;31;33538;-58
2022/09/07 04:05:36;;;;;;;15.70;11.05;;;;;;;18.97;79.27;100633.22;5583901;32;33699;-58
2022/09/07 04:08:39;;;;;;;12.50;11.30;;;;;;;19.01;79.00;100639.59;5583792;31;33785;-58
2022/09/07 04:11:41;;;;;;;13.73;11.63;;;;;;;18.99;78.73;100641.84;5582702;31;33063;-58
2022/09/07 04:14:43;;;;;;;13.40;11.95;;;;;;;18.99;78.53;100636.41;5583599;31;33597;-58
2022/09/07 04:17:46;;;;;;;13.25;11.80;;;;;;;19.00;78.39;100643.44;5583750;32;33492;-58
2022/09/07 04:20:49;;;;;;;13.00;11.32;;;;;;;19.02;78.78;100643.91;5583553;32;34145;-58
2022/09/07 04:23:52;;;;;;;12.20;10.95;;;;;;;19.06;78.56;100638.59;5583585;31;33185;-58
2022/09/07 04:26:54;;;;;;;14.95;11.12;;;;;;;19.17;77.76;100634.34;5583575;32;34424;-58
2022/09/07 04:29:56;;;;;;;13.65;10.52;;;;;;;19.18;77.49;100639.47;5583474;31;33535;-58
2022/09/07 04:32:58;;;;;;;12.25;11.05;;;;;;;19.10;77.55;100639.53;5583546;31;34313;-59
2022/09/07 04:36:01;;;;;;;13.50;10.85;;;;;;;19.04;77.98;100644.37;5582910;32;33569;-58
2022/09/07 04:39:04;;;;;;;12.43;10.35;;;;;;;19.21;77.19;100646.16;5583687;31;33619;-58
2022/09/07 04:42:07;;;;;;;11.63;10.43;;;;;;;19.20;77.05;100644.56;5583465;31;33578;-58
2022/09/07 04:45:09;;;;;;;14.20;10.18;;;;;;;19.25;76.54;100650.59;5585214;31;33624;-58
2022/09/07 04:48:11;;;;;;;12.95;10.52;;;;;;;19.17;76.88;100653.38;5577128;31;33632;-58
2022/09/07 04:51:14;;;;;;;11.57;10.43;;;;;;;19.18;77.43;100652.25;5567200;32;33685;-58
2022/09/07 04:54:17;;;;;;;11.38;10.27;;;;;;;19.22;76.63;100651.25;5575036;32;33673;-58
2022/09/07 04:57:24;;;;;;;11.05;9.85;;;;;;;19.23;76.55;100661.00;5579634;31;34371;-58
2022/09/07 05:00:27;;;;;;;11.52;10.20;;;;;;;19.23;76.37;100658.28;5576208;31;33618;-58
2022/09/07 05:03:31;;;;;;;14.85;9.80;;;;;;;19.30;75.83;100660.47;5563504;32;33651;-58
2022/09/07 05:06:33;;;;;;;13.82;10.10;;;;;;;19.32;75.90;100662.88;5560986;32;33722;-58
2022/09/07 05:09:35;;;;;;;11.45;8.90;;;;;;;19.29;75.43;100663.53;5550854;32;34256;-58
2022/09/07 05:12:38;;;;;;;11.00;9.63;;;;;;;19.34;75.87;100657.91;5549237;32;33624;-58
2022/09/07 05:15:40;;;;;;;12.02;10.20;;;;;;;19.38;75.15;100656.09;5549352;32;33588;-58
2022/09/07 05:18:43;;;;;;;13.73;9.73;;;;;;;19.44;74.77;100662.94;5549799;32;34334;-58
2022/09/07 05:21:45;;;;;;;12.27;9.15;;;;;;;19.43;74.96;100662.12;5550004;31;33703;-58
2022/09/07 05:24:48;;;;;;;14.10;8.88;;;;;;;19.55;74.65;100671.47;5573262;31;33281;-58
2022/09/07 05:27:50;;;;;;;11.25;8.98;;;;;;;19.66;73.48;100672.69;5566374;32;34351;-58
2022/09/07 05:30:52;;;;;;;11.82;8.48;;;;;;;19.72;73.18;100663.19;5564992;31;32923;-58
2022/09/07 05:34:14;;;;;;;13.50;9.32;;;;;;;19.79;72.87;100670.78;5549444;32;33626;-58
2022/09/07 05:37:33;;;;;;;10.48;8.52;;;;;;;19.84;72.16;100676.03;5549639;32;33870;-58
2022/09/07 05:40:35;;;;;;;11.57;8.88;;;;;;;19.92;71.99;100680.59;5563517;32;33448;-58
2022/09/07 05:43:42;;;;;;;10.60;8.95;;;;;;;19.93;71.90;100682.16;5557136;32;33578;-58
2022/09/07 05:47:05;;;;;;;11.70;8.55;;;;;;;19.93;71.68;100682.16;5565687;32;34153;-58
2022/09/07 05:50:08;;;;;;;10.55;8.93;;;;;;;19.96;72.62;100689.66;5561445;32;33707;-58
2022/09/07 05:53:10;;;;;;;10.13;8.88;;;;;;;19.99;71.30;100675.38;5555263;32;34424;-58
2022/09/07 05:56:12;;;;;;;10.38;8.60;;;;;;;20.07;71.39;100679.16;5561224;32;33769;-58
2022/09/07 05:59:14;;;;;;;12.10;9.23;;;;;;;20.22;70.79;100681.22;5549773;32;33830;-58
2022/09/07 06:02:17;;;;;;;12.35;8.30;;;;;;;20.23;69.04;100685.56;5548736;32;33645;-58
2022/09/07 06:05:20;;;;;;;12.93;8.80;;;;;;;20.21;69.88;100689.75;5549217;32;33802;-58
2022/09/07 06:08:22;;;;;;;10.85;8.45;;;;;;;20.25;69.59;100685.19;5548793;32;34297;-58
2022/09/07 06:11:26;;;;;;;9.75;8.70;;;;;;;20.32;69.39;100685.44;5552712;32;34390;-58
2022/09/07 06:14:28;;;;;;;10.57;9.50;;;;;;;20.33;68.96;100692.47;5565867;32;34250;-58
2022/09/07 06:17:30;;;;;;;11.75;8.45;;;;;;;20.34;69.00;100694.06;5548787;32;33700;-58
2022/09/07 06:20:32;;;;;;;12.18;9.25;;;;;;;20.46;68.91;100691.34;5549603;32;34229;-58
2022/09/07 06:23:36;;;;;;;9.68;8.75;;;;;;;20.46;68.62;100685.91;5555975;32;33515;-58
2022/09/07 06:26:38;;;;;;;11.57;8.35;;;;;;;20.50;68.53;100692.28;5555969;31;33654;-58
2022/09/07 06:29:41;;;;;;;21.73;10.00;;;;;;;20.57;68.03;100691.75;5553793;32;34416;-58
2022/09/07 06:32:43;;;;;;;20.40;9.10;;;;;;;20.54;68.42;100692.41;5561593;32;33742;-58
2022/09/07 06:35:57;;;;;;;11.43;9.32;;;;;;;20.59;68.47;100692.97;5554249;32;33651;-58
2022/09/07 06:39:02;;;;;;;9.77;8.70;;;;;;;20.64;67.95;100681.06;5565214;32;33349;-58
2022/09/07 06:42:05;;;;;;;53.85;12.10;;;;;;;20.63;67.55;100685.72;5550080;32;33646;-58
2022/09/07 06:45:09;;;;;;;25.55;10.15;;;;;;;20.65;68.25;100678.00;5551430;31;33265;-58
2022/09/07 06:48:14;;;;;;;11.63;9.68;;;;;;;20.80;67.89;100679.25;5549795;32;33827;-58
2022/09/07 06:51:19;;;;;;;12.55;9.60;;;;;;;20.81;66.55;100671.88;5557883;32;33594;-59
2022/09/07 06:54:22;;;;;;;11.12;9.30;;;;;;;20.79;66.95;100676.84;5564233;32;34347;-59
2022/09/07 06:57:44;;;;;;;16.12;9.07;;;;;;;20.77;66.61;100679.94;5562984;32;33724;-58
2022/09/07 07:00:46;;;;;;;11.95;9.38;;;;;;;20.71;67.36;100684.00;5549630;32;34265;-59
2022/09/07 07:03:50;;;;;;;11.52;8.88;;;;;;;20.74;67.04;100677.09;5552432;31;33310;-58
2022/09/07 07:06:54;;;;;;;;;;;;;;;20.73;67.68;100673.59;5576972;31;34318;-58
2022/09/07 07:09:56;;;;;;;12.98;8.93;;;;;;;20.87;66.87;100684.91;5580836;31;34492;-58
2022/09/07 07:12:59;;;;;;;12.52;9.23;;;;;;;20.91;66.85;100682.28;5565387;32;33619;-58
2022/09/07 07:16:03;;;;;;;12.35;9.13;;;;;;;20.90;66.75;100686.16;5549208;32;34386;-58
2022/09/07 07:19:06;;;;;;;15.07;9.25;;;;;;;20.95;66.72;100685.91;5549246;32;33810;-58
2022/09/07 07:22:08;;;;;;;13.15;9.57;;;;;;;20.90;66.87;100682.66;5557284;31;33662;-58
2022/09/07 07:25:33;;;;;;;11.55;9.27;;;;;;;20.96;66.72;100689.44;5568851;32;34327;-56
2022/09/07 07:28:35;;;;;;;11.40;9.13;;;;;;;21.01;66.78;100683.75;5567890;32;34405;-56
2022/09/07 07:31:57;;;;;;;28.83;9.40;;;;;;;21.09;66.61;100688.28;5548571;31;34228;-56
2022/09/07 07:35:00;;;;;;;9.20;8.30;;;;;;;21.21;66.92;100687.47;5559246;32;34660;-56
2022/09/07 07:38:02;;;;;;;10.77;9.43;;;;;;;21.22;66.72;100687.13;5557127;32;33611;-56
2022/09/07 07:41:30;;;;;;;9.65;8.50;;;;;;;21.25;65.63;100689.16;5548507;32;33493;-56
2022/09/07 07:44:53;;;;;;;10.50;8.60;;;;;;;21.33;65.30;100684.72;5550265;32;34401;-56
2022/09/07 07:48:16;;;;;;;10.40;9.40;;;;;;;21.42;65.72;100684.59;5563253;31;33569;-56
2022/09/07 07:51:19;;;;;;;10.15;7.62;;;;;;;21.47;65.89;100685.16;5562645;31;34396;-56
2022/09/07 07:54:21;;;;;;;13.85;9.82;;;;;;;21.53;66.12;100677.53;5549602;32;33358;-56
2022/09/07 07:57:24;;;;;;;11.10;9.00;;;;;;;21.65;65.05;100680.19;5557297;32;32417;-56
2022/09/07 08:00:26;;;;;;;15.50;7.95;;;;;;;21.64;64.35;100681.34;5560631;32;33701;-56
2022/09/07 08:03:48;;;;;;;15.52;8.50;;;;;;;21.61;65.50;100668.38;5566016;32;33696;-56
2022/09/07 08:06:51;;;;;;;11.18;9.02;;;;;;;21.72;64.32;100668.69;5567278;32;33715;-56
2022/09/07 08:09:53;;;;;;;13.88;7.37;;;;;;;21.78;64.19;100672.75;5553983;32;34439;-56
2022/09/07 08:12:55;;;;;;;9.18;7.85;;;;;;;21.90;65.73;100674.63;5565643;32;34298;-56
2022/09/07 08:15:58;;;;;;;9.68;7.28;;;;;;;21.99;64.03;100673.31;5561502;32;34379;-56
2022/09/07 08:19:00;;;;;;;13.38;8.13;;;;;;;22.00;63.55;100674.91;5547350;32;34341;-56
2022/09/07 08:22:03;;;;;;;7.45;6.65;;;;;;;22.01;64.26;100679.22;5550322;32;34336;-56
2022/09/07 08:25:06;;;;;;;12.80;8.15;;;;;;;22.03;63.89;100684.34;5552518;32;34260;-56
2022/09/07 08:28:08;;;;;;;9.80;7.90;;;;;;;22.04;63.42;100681.25;5550217;32;34278;-56
2022/09/07 08:31:12;;;;;;;15.25;8.00;;;;;;;22.13;62.82;100661.19;5549735;32;33817;-55
2022/09/07 08:34:15;;;;;;;10.45;7.87;;;;;;;22.19;63.88;100657.87;5559117;32;34382;-56
2022/09/07 08:37:17;;;;;;;14.70;7.78;;;;;;;22.24;63.98;100665.78;5563245;32;33826;-56
2022/09/07 08:40:20;;;;;;;13.75;6.72;;;;;;;22.25;63.72;100661.13;5563594;32;33547;-56
2022/09/07 08:43:48;;;;;;;15.05;7.95;;;;;;;22.33;63.89;100656.66;5564258;32;33593;-56
2022/09/07 08:46:57;;;;;;;12.60;8.32;;;;;;;22.47;62.48;100649.56;5561751;32;33926;-56
2022/09/07 08:50:08;;;;;;;14.00;7.32;;;;;;;22.49;62.50;100644.56;5554435;32;33608;-56
2022/09/07 08:53:16;;;;;;;9.20;7.57;;;;;;;22.50;63.23;100653.53;5549572;31;34374;-56
2022/09/07 08:56:28;;;;;;;9.73;7.60;;;;;;;22.55;62.27;100658.75;5551666;32;34345;-56
2022/09/07 08:59:50;;;;;;;15.10;7.78;;;;;;;22.57;62.63;100652.91;5562362;31;33583;-56
2022/09/07 09:02:52;;;;;;;10.73;8.82;;;;;;;22.60;62.98;100657.69;5570327;31;34675;-56
2022/09/07 09:06:30;;;;;;;21.98;8.73;;;;;;;22.64;61.96;100650.34;5558163;32;33695;-56
2022/09/07 09:09:51;;;;;;;22.00;9.32;;;;;;;22.67;62.92;100644.16;5565741;31;34104;-56
2022/09/07 09:13:17;;;;;;;12.68;8.82;;;;;;;22.73;62.98;100640.81;5561218;31;33433;-56
2022/09/07 09:16:23;;;;;;;27.40;9.02;;;;;;;22.85;62.17;100641.84;5565983;31;34398;-56
2022/09/07 09:19:57;;;;;;;17.42;8.27;;;;;;;22.88;63.04;100643.84;5548117;32;33658;-56
2022/09/07 09:23:11;;;;;;;92.78;12.70;;;;;;;23.04;62.18;100646.56;5555619;32;34071;-56
2022/09/07 09:26:23;;;;;;;12.57;6.47;;;;;;;23.08;61.82;100644.69;5558201;32;33752;-56
2022/09/07 09:29:25;;;;;;;22.02;8.77;;;;;;;23.08;64.52;100644.69;5551668;31;33848;-56
2022/09/07 09:32:51;;;;;;;16.42;7.93;;;;;;;23.10;64.81;100642.41;5547392;32;33664;-56
2022/09/07 09:35:59;;;;;;;22.77;9.35;;;;;;;23.15;63.16;100637.47;5549464;32;33668;-56
2022/09/07 09:39:31;;;;;;;13.18;8.05;;;;;;;23.20;61.66;100634.41;5554260;32;34305;-56
2022/09/07 09:42:34;;;;;;;12.18;7.60;;;;;;;23.25;62.32;100630.63;5549853;32;33706;-56
2022/09/07 09:45:44;;;;;;;12.50;8.65;;;;;;;23.33;63.08;100617.88;5561008;32;33648;-56
2022/09/07 09:49:21;;;;;;;10.52;7.07;;;;;;;23.42;60.91;100621.97;5549158;32;34406;-56
2022/09/07 09:52:25;;;;;;;13.02;8.13;;;;;;;23.47;61.77;100617.34;5568103;32;33754;-56
2022/09/07 09:55:34;;;;;;;11.18;8.80;;;;;;;23.50;60.84;100609.22;5566355;32;33590;-56
2022/09/07 09:58:44;;;;;;;11.55;8.30;;;;;;;23.49;60.10;100615.84;5559711;32;33656;-56
2022/09/07 10:02:30;;;;;;;8.55;7.68;;;;;;;23.70;58.08;100620.16;5559201;32;33695;-56
2022/09/07 10:05:53;;;;;;;10.13;8.60;;;;;;;23.72;60.31;100618.66;5555584;32;34368;-56
2022/09/07 10:09:00;;;;;;;22.25;7.78;;;;;;;23.81;57.03;100611.00;5565928;32;34354;-56
2022/09/07 10:12:05;;;;;;;10.65;8.70;;;;;;;23.86;58.32;100610.69;5557463;32;34519;-56
2022/09/07 10:15:25;;;;;;;19.80;8.95;;;;;;;23.91;56.82;100609.59;5564105;32;33723;-56
2022/09/07 10:18:34;;;;;;;11.00;7.93;;;;;;;23.87;57.30;100609.53;5559741;32;34517;-56
2022/09/07 10:21:36;;;;;;;14.30;7.97;;;;;;;23.95;58.01;100606.94;5558257;32;34377;-56
2022/09/07 10:24:39;;;;;;;9.07;7.97;;;;;;;23.97;58.08;100601.84;5564715;32;33742;-56
2022/09/07 10:27:44;;;;;;;10.00;7.90;;;;;;;24.01;57.04;100597.25;5569237;32;34462;-56
2022/09/07 10:31:10;;;;;;;12.80;7.82;;;;;;;24.06;56.98;100596.94;5563654;32;33932;-56
2022/09/07 10:34:32;;;;;;;71.72;11.20;;;;;;;24.11;57.26;100596.63;5558028;32;33624;-56
2022/09/07 10:37:41;;;;;;;9.05;7.65;;;;;;;24.19;58.11;100603.00;5558378;32;33630;-56
2022/09/07 10:40:52;;;;;;;11.68;8.40;;;;;;;24.18;56.81;100590.47;5554964;32;33805;-56
2022/09/07 10:43:55;;;;;;;9.40;8.50;;;;;;;24.24;57.39;100589.81;5552160;32;34466;-56
2022/09/07 10:47:24;;;;;;;9.48;8.30;;;;;;;24.33;55.35;100592.28;5560608;32;33646;-56
2022/09/07 10:50:38;;;;;;;10.80;8.00;;;;;;;24.22;57.04;100594.84;5562913;31;34553;-56
2022/09/07 10:54:18;;;;;;;10.60;8.60;;;;;;;24.30;56.37;100588.31;5552550;32;33739;-56
2022/09/07 10:57:39;;;;;;;11.43;7.90;;;;;;;24.32;55.78;100579.75;5557741;32;34575;-56
2022/09/07 11:01:06;;;;;;;13.88;9.57;;;;;;;24.44;56.47;100581.53;5563580;32;34378;-56
2022/09/07 11:04:27;;;;;;;9.45;8.45;;;;;;;24.48;54.81;100582.34;5549560;32;33706;-56
2022/09/07 11:08:00;;;;;;;11.10;7.90;;;;;;;24.52;55.98;100577.72;5549359;32;32172;-56
2022/09/07 11:11:10;;;;;;;9.18;7.95;;;;;;;24.58;56.60;100576.22;5560610;32;34330;-56
2022/09/07 11:14:20;;;;;;;11.23;8.60;;;;;;;24.59;54.76;100572.31;5549499;32;33565;-56
2022/09/07 11:17:27;;;;;;;12.25;9.32;;;;;;;24.66;55.19;100575.16;5549813;32;34294;-56
2022/09/07 11:20:36;;;;;;;9.60;8.60;;;;;;;24.64;55.15;100569.28;5548898;31;34423;-56
2022/09/07 11:23:43;;;;;;;9.57;8.57;;;;;;;24.58;54.99;100566.06;5557431;32;33836;-56
2022/09/07 11:26:56;;;;;;;16.52;9.80;;;;;;;24.66;55.72;100557.94;5563322;32;34408;-56
2022/09/07 11:30:11;;;;;;;13.48;11.70;;;;;;;24.75;55.36;100561.97;5549639;32;33695;-56
2022/09/07 11:33:25;;;;;;;14.70;12.93;;;;;;;24.74;54.51;100556.88;5558690;32;34465;-56
2022/09/07 11:36:35;;;;;;;15.47;13.80;;;;;;;24.71;54.81;100552.13;5558960;31;33617;-56
2022/09/07 11:39:47;;;;;;;19.67;18.17;;;;;;;24.87;54.18;100547.25;5567870;31;34504;-56
2022/09/07 11:43:13;;;;;;;22.95;16.62;;;;;;;24.89;51.84;100547.66;5549201;32;33752;-56
2022/09/07 11:46:25;;;;;;;19.92;18.23;;;;;;;24.91;53.99;100550.81;5549003;31;33689;-56
2022/09/07 11:49:29;;;;;;;22.05;18.90;;;;;;;24.90;53.68;100540.19;5556720;32;34326;-56
2022/09/07 11:52:42;;;;;;;20.35;18.37;;;;;;;25.00;53.14;100540.34;5564522;32;34454;-56
2022/09/07 11:55:48;;;;;;;20.92;18.83;;;;;;;25.01;53.29;100538.41;5567054;32;33773;-56
2022/09/07 11:58:59;;;;;;;19.98;18.00;;;;;;;24.98;52.30;100539.94;5561102;32;33727;-56
2022/09/07 12:02:32;;;;;;;21.33;19.45;;;;;;;25.04;53.31;100543.13;5557220;32;34447;-56
2022/09/07 12:06:10;;;;;;;22.27;19.98;;;;;;;25.09;53.26;100535.34;5560327;31;34475;-56
2022/09/07 12:09:52;;;;;;;20.60;18.73;;;;;;;25.07;52.36;100532.19;5563815;32;34013;-56
2022/09/07 12:13:22;;;;;;;20.62;18.83;;;;;;;25.13;53.22;100523.66;5547921;32;34451;-56
2022/09/07 12:16:34;;;;;;;20.50;18.80;;;;;;;25.19;52.69;100522.94;5548724;32;33539;-56
2022/09/07 12:19:37;;;;;;;20.77;18.98;;;;;;;25.11;53.25;100515.00;5551546;32;33639;-56
2022/09/07 12:23:06;;;;;;;21.83;19.62;;;;;;;25.18;54.49;100521.38;5568535;32;33635;-56
2022/09/07 12:26:33;;;;;;;22.48;20.25;;;;;;;25.17;53.83;100524.50;5551923;32;34443;-56
2022/09/07 12:29:36;;;;;;;21.08;19.27;;;;;;;25.09;54.01;100520.84;5575297;31;33860;-56
2022/09/07 12:32:47;;;;;;;21.35;19.40;;;;;;;25.10;53.86;100519.69;5576742;31;33747;-56
2022/09/07 12:36:00;;;;;;;22.08;20.17;;;;;;;25.10;54.48;100519.69;5569298;32;33747;-56
2022/09/07 12:39:18;;;;;;;19.55;17.80;;;;;;;25.12;54.84;100516.59;5565184;32;33766;-56
2022/09/07 12:42:25;;;;;;;21.30;19.30;;;;;;;25.07;54.71;100521.22;5569061;32;33739;-56
2022/09/07 12:45:38;;;;;;;20.27;18.48;;;;;;;25.11;54.80;100513.03;5568755;32;33647;-56
2022/09/07 12:48:47;;;;;;;21.37;19.40;;;;;;;25.21;54.32;100515.13;5569568;32;33724;-56
2022/09/07 12:52:08;;;;;;;20.17;18.45;;;;;;;25.18;54.85;100513.12;5568531;32;34347;-56
2022/09/07 12:55:23;;;;;;;21.25;19.15;;;;;;;25.20;55.19;100497.09;5569619;32;33837;-56
2022/09/07 12:58:36;;;;;;;21.33;19.23;;;;;;;25.13;55.67;100501.72;5568282;32;33804;-56
2022/09/07 13:01:59;;;;;;;20.40;18.50;;;;;;;25.12;54.18;100498.19;5559738;32;33512;-56
2022/09/07 13:05:43;;;;;;;21.35;19.23;;;;;;;25.16;54.21;100496.25;5570093;32;34410;-56
2022/09/07 13:09:07;;;;;;;19.87;18.07;;;;;;;25.19;54.98;100503.72;5552154;32;33533;-56
2022/09/07 13:12:29;;;;;;;19.67;18.08;;;;;;;25.18;55.31;100493.94;5558942;32;34471;-56
2022/09/07 13:16:03;;;;;;;19.33;17.45;;;;;;;25.22;55.15;100492.00;5569786;32;33622;-56
2022/09/07 13:19:13;;;;;;;19.00;17.30;;;;;;;25.21;54.46;100487.69;5568578;32;34355;-56
2022/09/07 13:22:33;;;;;;;18.30;16.70;;;;;;;25.26;54.30;100483.81;5569228;32;33757;-56
2022/09/07 13:25:36;;;;;;;19.98;16.98;;;;;;;25.27;52.76;100486.19;5570068;32;33460;-56
2022/09/07 13:28:55;;;;;;;18.15;16.30;;;;;;;25.31;53.80;100481.53;5559875;32;34047;-56
2022/09/07 13:32:14;;;;;;;18.58;16.75;;;;;;;25.31;52.83;100473.28;5560935;32;33755;-56
2022/09/07 13:35:23;;;;;;;18.75;15.85;;;;;;;25.42;52.72;100480.81;5567243;32;33728;-56
2022/09/07 13:38:28;;;;;;;19.83;15.35;;;;;;;25.41;53.03;100469.06;5568367;32;34098;-56
2022/09/07 13:41:40;;;;;;;16.98;15.30;;;;;;;25.52;53.19;100471.91;5569615;32;34343;-56
2022/09/07 13:44:51;;;;;;;18.83;15.95;;;;;;;25.59;53.70;100469.19;5568236;32;33328;-56
2022/09/07 13:48:11;;;;;;;17.67;14.90;;;;;;;25.54;53.37;100466.81;5560959;32;33722;-56
2022/09/07 13:51:38;;;;;;;29.00;16.80;;;;;;;25.50;53.38;100466.00;5569254;32;34405;-56
2022/09/07 13:55:17;;;;;;;17.67;15.88;;;;;;;25.52;53.56;100449.94;5569457;32;33702;-56
2022/09/07 13:58:33;;;;;;;15.60;14.13;;;;;;;25.58;54.10;100451.16;5569508;32;34335;-58
2022/09/07 14:01:43;;;;;;;13.43;12.13;;;;;;;25.47;53.90;100439.31;5568675;32;34290;-59
2022/09/07 14:04:50;;;;;;;13.77;12.10;;;;;;;25.45;52.60;100436.94;5569359;32;34068;-59
2022/09/07 14:07:52;;;;;;;18.02;12.60;;;;;;;25.49;51.15;100437.75;5569560;32;34394;-59
2022/09/07 14:10:54;;;;;;;17.73;13.80;;;;;;;25.52;52.09;100437.00;5569537;32;33649;-59
2022/09/07 14:14:15;;;;;;;16.02;12.13;;;;;;;25.54;52.67;100440.16;5569456;32;33669;-59
2022/09/07 14:17:18;;;;;;;14.90;11.90;;;;;;;25.49;51.97;100428.75;5569398;32;33727;-58
2022/09/07 14:20:22;;;;;;;17.87;13.40;;;;;;;25.50;51.34;100438.56;5569201;32;33934;-59
2022/09/07 14:23:33;;;;;;;14.38;11.57;;;;;;;25.44;52.84;100435.38;5569457;32;33722;-59
2022/09/07 14:26:44;;;;;;;20.65;13.40;;;;;;;25.53;51.38;100440.56;5569439;32;33239;-59
2022/09/07 14:29:47;;;;;;;14.77;12.10;;;;;;;25.48;53.48;100441.69;5569159;32;33668;-59
2022/09/07 14:32:52;;;;;;;13.05;11.70;;;;;;;25.52;52.09;100431.50;5569125;32;33440;-59
2022/09/07 14:35:56;;;;;;;12.88;11.60;;;;;;;25.50;51.33;100436.59;5569095;32;34387;-59
2022/09/07 14:39:01;;;;;;;18.45;11.55;;;;;;;25.50;51.40;100425.62;5568328;32;34345;-59
2022/09/07 14:42:10;;;;;;;15.18;13.62;;;;;;;25.45;51.25;100431.47;5569260;32;33677;-59
2022/09/07 14:45:21;;;;;;;16.48;12.40;;;;;;;25.48;52.47;100427.16;5569405;32;33649;-59
2022/09/07 14:48:24;;;;;;;13.13;11.65;;;;;;;25.48;52.76;100425.22;5569039;32;33498;-58
2022/09/07 14:51:36;;;;;;;15.93;12.77;;;;;;;25.41;51.32;100432.59;5569003;32;33686;-58
